7TA1 weather

Navasota Regional Hospital Heliport
Navasota, Texas, United States

Public forecast

Using degrees Fahrenheit for public forecast. Weather courtesy of forecast.io.

Closest aviation weather report (METAR) to Navasota Regional Hospital Heliport

Closest report is Brenham Municipal Airport, 18.6 nm (34.4 km) SW. Retrieved 2020/08/06 00:35 UTC (10 minutes ago):

K11R 060035Z AUTO 17005KT 10SM CLR 33/21 A2992 RMK AO2 LTG DSNT SE T03290211

Closest aviation forecast (TAF) to Navasota Regional Hospital Heliport

Closest forecast is Easterwood Field, 18.9 nm (35.1 km) NW. Retrieved 2020-08-06 00:42 UTC (3 minutes ago):

TAF KCLL 052340Z 0600/0624 20006KT P6SM SKC FM061200 17004KT P6SM FEW150 FM061500 19008KT P6SM FEW035